createdAt,value
2022-12-08T00:00:39.043Z,5.61
2022-12-08T00:06:07.600Z,5.76
2022-12-08T00:11:14.075Z,5.56
2022-12-08T00:16:15.976Z,5.69
2022-12-08T00:21:18.011Z,5.61
2022-12-08T00:26:19.871Z,5.38
2022-12-08T00:31:21.916Z,5.35
2022-12-08T00:36:23.824Z,5.46
2022-12-08T00:41:46.254Z,4.87
2022-12-08T00:46:48.722Z,4.79
2022-12-08T00:51:50.966Z,4.34
2022-12-08T00:56:53.054Z,4.35
2022-12-08T01:01:54.950Z,3.94
2022-12-08T01:06:56.797Z,3.87
2022-12-08T01:11:58.860Z,3.83
2022-12-08T01:17:00.767Z,3.80
2022-12-08T01:22:02.689Z,3.89
2022-12-08T01:27:04.905Z,3.91
2022-12-08T01:32:08.491Z,4.06
2022-12-08T01:37:12.579Z,4.05
2022-12-08T01:42:22.595Z,4.10
2022-12-08T01:47:30.205Z,3.98
2022-12-08T01:52:42.888Z,3.91
2022-12-08T01:57:48.953Z,3.74
2022-12-08T02:03:09.167Z,3.70
2022-12-08T02:08:13.444Z,3.76
2022-12-08T02:13:17.855Z,3.58
2022-12-08T02:18:42.995Z,3.45
2022-12-08T02:24:07.496Z,3.56
2022-12-08T02:29:36.054Z,3.35
2022-12-08T02:34:45.053Z,3.49
2022-12-08T02:40:01.259Z,3.32
2022-12-08T02:45:12.487Z,3.21
2022-12-08T02:50:15.625Z,3.23
2022-12-08T02:55:28.196Z,3.19
2022-12-08T03:01:02.853Z,3.16
2022-12-08T03:06:11.654Z,3.15
2022-12-08T03:11:49.007Z,3.10
2022-12-08T03:16:55.383Z,3.12
2022-12-08T03:22:03.115Z,3.02
2022-12-08T03:27:32.018Z,2.88
2022-12-08T03:32:40.675Z,3.03
2022-12-08T03:37:43.584Z,3.03
2022-12-08T03:42:45.580Z,3.04
2022-12-08T03:47:47.988Z,3.10
2022-12-08T03:52:49.836Z,3.19
2022-12-08T03:57:51.723Z,3.16
2022-12-08T04:02:53.919Z,3.18
2022-12-08T04:07:58.169Z,3.54
2022-12-08T04:13:00.461Z,3.88
2022-12-08T04:18:02.765Z,3.99
2022-12-08T04:23:04.788Z,3.94
2022-12-08T04:28:06.976Z,3.97
2022-12-08T04:33:08.877Z,3.89
2022-12-08T04:38:11.017Z,3.55
2022-12-08T04:43:12.891Z,3.39
2022-12-08T04:48:15.679Z,3.32
2022-12-08T04:53:17.914Z,3.52
2022-12-08T04:58:20.315Z,3.53
2022-12-08T05:03:28.544Z,3.58
2022-12-08T05:08:31.266Z,3.49
2022-12-08T05:13:33.454Z,3.63
2022-12-08T05:18:35.967Z,3.41
2022-12-08T05:23:38.119Z,3.47
2022-12-08T05:28:41.738Z,3.60
2022-12-08T05:33:45.323Z,3.58
2022-12-08T05:38:47.737Z,3.69
2022-12-08T05:43:49.674Z,3.71
2022-12-08T05:48:51.719Z,3.53
2022-12-08T05:53:54.055Z,3.50
2022-12-08T05:58:56.010Z,3.57
2022-12-08T06:03:59.700Z,3.42
2022-12-08T06:09:05.180Z,3.27
2022-12-08T06:14:11.228Z,3.10
2022-12-08T06:19:13.800Z,3.12
2022-12-08T06:24:15.765Z,3.02
2022-12-08T06:29:17.592Z,3.05
2022-12-08T06:34:19.506Z,2.97
2022-12-08T06:39:21.362Z,2.99
2022-12-08T06:44:23.431Z,2.98
2022-12-08T06:49:25.630Z,2.99
2022-12-08T06:54:27.747Z,3.02
2022-12-08T06:59:29.702Z,3.05
2022-12-08T07:04:31.702Z,3.04
2022-12-08T07:09:33.834Z,2.95
2022-12-08T07:14:35.696Z,3.05
2022-12-08T07:19:37.823Z,2.94
2022-12-08T07:24:39.724Z,3.01
2022-12-08T07:29:41.809Z,2.99
2022-12-08T07:34:43.681Z,3.14
2022-12-08T07:39:46.269Z,2.95
2022-12-08T07:44:48.121Z,3.01
2022-12-08T07:49:50.138Z,3.12
2022-12-08T07:54:52.017Z,3.31
2022-12-08T07:59:53.882Z,3.31
2022-12-08T08:04:55.809Z,3.54
2022-12-08T08:09:58.116Z,3.57
2022-12-08T08:15:01.638Z,3.59
2022-12-08T08:20:08.354Z,3.69
2022-12-08T08:25:10.321Z,3.85
2022-12-08T08:30:20.025Z,3.93
2022-12-08T08:35:22.532Z,4.01
2022-12-08T08:40:25.651Z,4.18
2022-12-08T08:45:28.416Z,4.30
2022-12-08T08:50:37.227Z,4.35
2022-12-08T08:55:40.420Z,4.50
2022-12-08T09:00:43.853Z,4.62
2022-12-08T09:05:45.908Z,5.05
2022-12-08T09:10:47.872Z,5.47
2022-12-08T09:15:49.940Z,5.94
2022-12-08T09:20:52.245Z,6.26
2022-12-08T09:25:54.152Z,6.74
2022-12-08T09:30:56.192Z,6.79
2022-12-08T09:36:02.754Z,6.96
2022-12-08T09:41:14.667Z,7.11
2022-12-08T09:46:18.149Z,7.17
2022-12-08T09:51:20.035Z,7.78
2022-12-08T09:56:25.457Z,7.97
2022-12-08T10:01:31.181Z,8.24
2022-12-08T10:06:36.410Z,8.28
2022-12-08T10:11:47.349Z,8.42
2022-12-08T10:16:52.150Z,8.37
2022-12-08T10:21:56.983Z,7.72
2022-12-08T10:26:59.333Z,7.59
2022-12-08T10:32:09.131Z,7.32
2022-12-08T10:37:11.410Z,7.38
2022-12-08T10:42:22.224Z,7.71
2022-12-08T10:47:26.865Z,8.06
2022-12-08T10:52:28.742Z,7.91
2022-12-08T10:57:30.620Z,7.73
2022-12-08T11:02:32.825Z,7.70
2022-12-08T11:07:35.005Z,7.28
2022-12-08T11:12:37.555Z,6.91
2022-12-08T11:17:39.565Z,6.89
2022-12-08T11:22:44.487Z,6.85
2022-12-08T11:27:48.864Z,6.93
2022-12-08T11:32:57.362Z,6.80
2022-12-08T11:38:20.487Z,6.86
2022-12-08T11:43:34.507Z,6.90
2022-12-08T11:49:18.028Z,6.93
2022-12-08T11:54:32.921Z,7.19
2022-12-08T11:59:47.241Z,7.16
2022-12-08T12:05:01.928Z,7.28
2022-12-08T12:10:28.733Z,7.73
2022-12-08T12:16:07.869Z,7.58
2022-12-08T12:21:23.939Z,7.48
2022-12-08T12:26:29.424Z,7.77
2022-12-08T12:31:35.322Z,7.84
2022-12-08T12:36:57.838Z,7.92
2022-12-08T12:42:04.874Z,7.64
2022-12-08T12:47:12.156Z,7.82
2022-12-08T12:52:17.142Z,7.63
2022-12-08T12:57:18.968Z,7.76
2022-12-08T13:02:24.088Z,7.64
2022-12-08T13:07:29.991Z,7.89
2022-12-08T13:12:32.001Z,7.69
2022-12-08T13:17:37.263Z,7.71
2022-12-08T13:23:09.966Z,7.49
2022-12-08T13:28:31.178Z,7.48
2022-12-08T13:33:38.008Z,7.24
2022-12-08T13:38:43.150Z,7.18
2022-12-08T13:44:50.386Z,7.41
2022-12-08T13:55:58.820Z,7.28
2022-12-08T14:00:24.081Z,7.40
2022-12-08T14:06:10.537Z,7.26
2022-12-08T14:11:06.274Z,7.43
2022-12-08T14:16:28.321Z,7.38
2022-12-08T14:21:35.826Z,7.32
2022-12-08T14:26:38.702Z,7.24
2022-12-08T14:31:40.839Z,7.12
2022-12-08T14:36:42.869Z,7.01
2022-12-08T14:42:00.305Z,6.94
2022-12-08T14:47:10.695Z,6.87
2022-12-08T14:52:12.727Z,6.73
2022-12-08T14:57:15.236Z,6.85
2022-12-08T15:02:21.741Z,6.70
2022-12-08T15:07:30.028Z,6.25
2022-12-08T15:12:33.303Z,6.71
2022-12-08T15:17:48.987Z,6.45
2022-12-08T15:22:51.558Z,6.49
2022-12-08T15:27:53.760Z,6.38
2022-12-08T15:32:56.341Z,6.30
2022-12-08T15:37:58.383Z,6.25
2022-12-08T15:43:00.288Z,6.20
2022-12-08T15:48:02.248Z,5.70
2022-12-08T15:53:04.203Z,5.85
2022-12-08T16:09:06.212Z,5.90
2022-12-08T16:15:01.705Z,5.91
2022-12-08T16:19:35.323Z,5.99
2022-12-08T16:24:37.251Z,5.91
2022-12-08T16:29:39.050Z,6.15
2022-12-08T16:34:42.141Z,6.14
2022-12-08T16:39:46.197Z,6.27
2022-12-08T16:44:49.668Z,6.24
2022-12-08T16:49:51.916Z,6.29
2022-12-08T16:54:53.797Z,6.43
2022-12-08T16:59:55.721Z,6.31
2022-12-08T17:04:57.689Z,6.40
2022-12-08T17:09:59.645Z,6.37
2022-12-08T17:15:07.117Z,6.44
2022-12-08T17:20:13.336Z,6.45
2022-12-08T17:25:16.059Z,6.46
2022-12-08T17:30:19.180Z,6.49
2022-12-08T17:35:21.594Z,6.54
2022-12-08T17:40:27.986Z,6.55
2022-12-08T17:45:30.276Z,6.42
2022-12-08T17:50:32.320Z,6.27
2022-12-08T17:55:34.915Z,6.31
2022-12-08T18:00:37.084Z,6.30
2022-12-08T18:05:39.016Z,6.13
2022-12-08T18:10:40.933Z,6.33
2022-12-08T18:15:43.009Z,6.12
2022-12-08T18:20:44.865Z,6.33
2022-12-08T18:25:47.135Z,6.20
2022-12-08T18:30:49.315Z,6.36
2022-12-08T18:35:51.721Z,6.20
2022-12-08T18:40:53.615Z,6.30
2022-12-08T18:46:04.391Z,6.26
2022-12-08T18:51:14.695Z,6.43
2022-12-08T18:56:30.760Z,6.30
2022-12-08T19:01:34.803Z,6.19
2022-12-08T19:06:39.227Z,6.11
2022-12-08T19:11:41.958Z,6.04
2022-12-08T19:16:44.062Z,5.83
2022-12-08T19:21:46.823Z,5.77
2022-12-08T19:26:48.932Z,5.72
2022-12-08T19:31:51.073Z,5.64
2022-12-08T19:36:53.459Z,5.47
2022-12-08T19:42:14.436Z,5.40
2022-12-08T19:47:16.527Z,5.45
2022-12-08T19:52:18.795Z,5.25
2022-12-08T19:57:20.900Z,5.27
2022-12-08T20:02:22.908Z,5.33
2022-12-08T20:07:24.907Z,5.40
2022-12-08T20:12:26.764Z,5.27
2022-12-08T20:17:28.694Z,5.20
2022-12-08T20:22:30.667Z,5.12
2022-12-08T20:27:33.365Z,5.16
2022-12-08T20:32:35.319Z,5.08
2022-12-08T20:37:37.615Z,5.04
2022-12-08T20:42:39.689Z,5.06
2022-12-08T20:47:41.685Z,4.90
2022-12-08T20:52:43.681Z,4.88
2022-12-08T20:57:45.766Z,4.86
2022-12-08T21:02:53.317Z,4.90
2022-12-08T21:07:58.207Z,4.84
2022-12-08T21:13:02.097Z,4.82
2022-12-08T21:18:04.378Z,4.71
2022-12-08T21:23:06.275Z,4.66
2022-12-08T21:28:08.422Z,4.58
2022-12-08T21:33:10.359Z,4.53
2022-12-08T21:38:12.768Z,4.45
2022-12-08T21:43:14.919Z,4.41
2022-12-08T21:48:17.448Z,4.48
2022-12-08T21:53:20.775Z,4.43
2022-12-08T21:58:22.902Z,4.47
2022-12-08T22:03:24.814Z,4.46
2022-12-08T22:08:27.914Z,4.45
2022-12-08T22:13:30.044Z,4.42
2022-12-08T22:18:32.730Z,4.38
2022-12-08T22:23:34.978Z,4.24
2022-12-08T22:28:39.871Z,4.23
2022-12-08T22:33:42.675Z,4.23
2022-12-08T22:38:44.954Z,4.16
2022-12-08T22:43:47.894Z,4.04
2022-12-08T22:48:51.044Z,4.19
2022-12-08T22:53:53.074Z,4.23
2022-12-08T22:58:55.147Z,4.27
2022-12-08T23:03:58.408Z,4.27
2022-12-08T23:09:00.828Z,4.06
2022-12-08T23:14:03.428Z,4.16
2022-12-08T23:19:05.587Z,4.04
2022-12-08T23:24:07.511Z,4.18
2022-12-08T23:29:09.524Z,4.24
2022-12-08T23:34:11.667Z,4.22
2022-12-08T23:39:13.676Z,4.24
2022-12-08T23:44:15.559Z,4.17
2022-12-08T23:49:17.652Z,4.18
2022-12-08T23:54:19.532Z,4.27
2022-12-08T23:59:21.435Z,4.36
